Time;durP1;ratioP1;P1;durP2;ratioP2;P2;SDS_P1;SDS_P2;PMS_P1;PMS_P2;Temp;Humidity;BMP_temperature;BMP_pressure;BME280_temperature;BME280_humidity;BME280_pressure;Samples;Min_cycle;Max_cycle;Signal;HPM_P1;HPM_P2
2023/01/15 00:00:34;;;;;;;9.75;9.25;;;;;;;;;;5074271;28;20022;-74
2023/01/15 00:02:59;;;;;;;10.00;9.45;;;;;;;;;;5094856;28;20024;-73
2023/01/15 00:05:24;;;;;;;9.00;8.60;;;;;;;;;;5094471;28;20020;-72
2023/01/15 00:07:51;;;;;;;9.88;9.38;;;;;;;;;;5096522;28;20031;-73
2023/01/15 00:10:16;;;;;;;9.63;9.13;;;;;;;;;;5099057;28;20028;-74
2023/01/15 00:12:41;;;;;;;9.02;8.63;;;;;;;;;;5096983;28;21530;-73
2023/01/15 00:15:07;;;;;;;10.35;9.75;;;;;;;;;;5094399;28;20514;-73
2023/01/15 00:17:32;;;;;;;8.85;8.45;;;;;;;;;;5101119;28;20021;-73
2023/01/15 00:19:57;;;;;;;9.48;8.98;;;;;;;;;;5100289;28;20019;-73
2023/01/15 00:22:23;;;;;;;9.85;9.35;;;;;;;;;;5079923;28;20107;-74
2023/01/15 00:27:38;;;;;;;9.02;8.57;;;;;;;;;;5093519;28;20509;-74
2023/01/15 00:30:04;;;;;;;9.18;8.75;;;;;;;;;;5095784;28;20027;-73
2023/01/15 00:32:29;;;;;;;9.05;8.65;;;;;;;;;;5092544;28;20475;-73
2023/01/15 00:34:56;;;;;;;9.80;9.30;;;;;;;;;;5075162;28;20081;-72
2023/01/15 00:37:22;;;;;;;10.02;9.50;;;;;;;;;;5097410;28;20026;-72
2023/01/15 00:39:47;;;;;;;8.90;8.50;;;;;;;;;;5098093;28;20012;-72
2023/01/15 00:42:13;;;;;;;9.43;8.93;;;;;;;;;;5096738;28;20028;-73
2023/01/15 00:44:38;;;;;;;9.05;8.65;;;;;;;;;;5096007;28;20389;-73
2023/01/15 00:47:05;;;;;;;9.43;8.93;;;;;;;;;;5096950;28;20020;-72
2023/01/15 00:49:30;;;;;;;8.77;8.38;;;;;;;;;;5101338;28;20553;-72
2023/01/15 00:51:55;;;;;;;9.02;8.63;;;;;;;;;;5090162;28;20104;-73
2023/01/15 00:54:21;;;;;;;9.65;9.15;;;;;;;;;;5090834;28;20086;-73
2023/01/15 00:56:46;;;;;;;9.40;8.90;;;;;;;;;;5081284;28;20475;-75
2023/01/15 00:59:12;;;;;;;8.80;8.40;;;;;;;;;;5101894;28;20023;-75
2023/01/15 01:01:37;;;;;;;9.60;9.10;;;;;;;;;;5092663;28;20016;-74
2023/01/15 01:04:03;;;;;;;9.10;8.70;;;;;;;;;;5102429;28;20020;-72
2023/01/15 01:06:28;;;;;;;9.63;9.13;;;;;;;;;;5074764;28;20036;-72
2023/01/15 01:08:55;;;;;;;9.40;8.90;;;;;;;;;;5099734;28;20031;-71
2023/01/15 01:11:23;;;;;;;8.80;8.40;;;;;;;;;;5100872;28;20371;-72
2023/01/15 01:13:50;;;;;;;9.02;8.63;;;;;;;;;;5080340;28;20051;-72
2023/01/15 01:16:21;;;;;;;9.10;8.70;;;;;;;;;;5075613;28;20016;-72
2023/01/15 01:18:48;;;;;;;9.50;9.00;;;;;;;;;;5098849;28;20039;-72
2023/01/15 01:21:13;;;;;;;8.50;8.10;;;;;;;;;;5098607;28;20387;-71
2023/01/15 01:23:38;;;;;;;11.10;10.40;;;;;;;;;;5079886;28;20106;-72
2023/01/15 01:26:04;;;;;;;9.30;8.85;;;;;;;;;;5079021;28;20048;-72
2023/01/15 01:28:29;;;;;;;9.13;8.65;;;;;;;;;;5101145;28;20026;-71
2023/01/15 01:30:54;;;;;;;10.02;9.45;;;;;;;;;;5093721;28;20026;-73
2023/01/15 01:33:20;;;;;;;8.82;8.43;;;;;;;;;;5099987;28;20398;-70
2023/01/15 01:35:48;;;;;;;8.40;8.00;;;;;;;;;;5101571;28;20069;-72
2023/01/15 01:38:14;;;;;;;8.55;8.15;;;;;;;;;;5096470;28;20029;-73
2023/01/15 01:40:40;;;;;;;9.23;8.73;;;;;;;;;;5098343;28;20024;-71
2023/01/15 01:43:15;;;;;;;8.82;8.43;;;;;;;;;;5099446;28;20034;-70
2023/01/15 01:45:40;;;;;;;9.00;8.60;;;;;;;;;;5089262;28;20389;-72
2023/01/15 01:48:06;;;;;;;8.90;8.50;;;;;;;;;;5098197;28;20040;-73
2023/01/15 01:50:32;;;;;;;8.85;8.45;;;;;;;;;;5085656;28;20045;-73
2023/01/15 01:53:00;;;;;;;9.50;9.00;;;;;;;;;;5095475;28;20028;-72
2023/01/15 01:55:26;;;;;;;9.30;8.80;;;;;;;;;;5094213;28;20494;-72
2023/01/15 01:57:54;;;;;;;9.25;8.77;;;;;;;;;;5071956;28;20081;-74
2023/01/15 02:00:20;;;;;;;9.60;9.10;;;;;;;;;;5095462;28;20032;-73
2023/01/15 02:02:46;;;;;;;9.30;8.80;;;;;;;;;;5093310;28;20068;-73
2023/01/15 02:05:14;;;;;;;9.40;8.90;;;;;;;;;;5073251;28;20024;-73
2023/01/15 02:07:40;;;;;;;9.90;9.40;;;;;;;;;;5093923;28;20020;-73
2023/01/15 02:10:05;;;;;;;8.90;8.50;;;;;;;;;;5082161;28;20053;-73
2023/01/15 02:12:34;;;;;;;10.25;9.65;;;;;;;;;;5077874;28;20019;-72
2023/01/15 02:15:12;;;;;;;9.00;8.60;;;;;;;;;;5098209;28;20020;-71
2023/01/15 02:17:43;;;;;;;8.90;8.50;;;;;;;;;;5093268;28;20150;-73
2023/01/15 02:20:14;;;;;;;8.93;8.52;;;;;;;;;;5097629;28;20019;-73
2023/01/15 02:23:08;;;;;;;9.40;8.90;;;;;;;;;;5073535;28;20016;-73
2023/01/15 02:25:43;;;;;;;9.10;8.70;;;;;;;;;;5070460;28;20031;-74
2023/01/15 02:28:15;;;;;;;9.38;8.88;;;;;;;;;;5078117;28;20059;-74
2023/01/15 02:30:42;;;;;;;8.95;8.55;;;;;;;;;;5071040;28;20024;-73
2023/01/15 02:33:14;;;;;;;9.10;8.70;;;;;;;;;;5094473;28;20062;-73
2023/01/15 02:35:44;;;;;;;9.10;8.70;;;;;;;;;;5094346;28;20015;-71
2023/01/15 02:38:12;;;;;;;8.80;8.40;;;;;;;;;;5078586;28;20395;-71
2023/01/15 02:40:38;;;;;;;9.27;8.77;;;;;;;;;;5094821;28;20016;-70
2023/01/15 02:43:04;;;;;;;8.82;8.43;;;;;;;;;;5099493;28;20027;-70
2023/01/15 02:45:31;;;;;;;8.95;8.55;;;;;;;;;;5073581;28;20377;-70
2023/01/15 02:47:59;;;;;;;9.50;9.00;;;;;;;;;;5087428;28;20538;-69
2023/01/15 02:50:27;;;;;;;9.02;8.63;;;;;;;;;;5094460;28;20028;-70
2023/01/15 02:52:56;;;;;;;8.70;8.30;;;;;;;;;;5097395;28;20039;-70
2023/01/15 02:55:24;;;;;;;8.98;8.57;;;;;;;;;;5095454;28;20040;-70
2023/01/15 02:57:51;;;;;;;9.13;8.73;;;;;;;;;;5085495;28;20023;-71
2023/01/15 03:00:17;;;;;;;9.43;8.93;;;;;;;;;;5086146;28;20372;-71
2023/01/15 03:02:48;;;;;;;9.00;8.60;;;;;;;;;;5090941;28;20548;-71
2023/01/15 03:05:19;;;;;;;8.85;8.45;;;;;;;;;;5091397;28;20027;-71
2023/01/15 03:07:52;;;;;;;8.68;8.27;;;;;;;;;;5091796;28;20051;-71
2023/01/15 03:10:18;;;;;;;8.60;8.20;;;;;;;;;;5091387;28;20047;-72
2023/01/15 03:13:02;;;;;;;8.57;8.18;;;;;;;;;;5081581;28;20026;-72
2023/01/15 03:18:34;;;;;;;8.70;8.30;;;;;;;;;;5053804;28;20304;-74
2023/01/15 03:21:03;;;;;;;9.13;8.73;;;;;;;;;;5081394;28;20073;-74
2023/01/15 03:23:29;;;;;;;9.07;8.68;;;;;;;;;;5099577;28;20032;-73
2023/01/15 03:25:55;;;;;;;9.57;9.07;;;;;;;;;;5100194;28;20026;-73
2023/01/15 03:28:24;;;;;;;9.00;8.60;;;;;;;;;;5083648;28;20012;-73
2023/01/15 03:30:50;;;;;;;9.60;9.10;;;;;;;;;;5105061;28;20028;-74
2023/01/15 03:33:16;;;;;;;9.05;8.65;;;;;;;;;;5104607;28;20077;-74
2023/01/15 03:35:44;;;;;;;9.57;9.07;;;;;;;;;;5113729;28;20463;-74
2023/01/15 03:38:10;;;;;;;9.13;8.73;;;;;;;;;;5104773;28;20020;-74
2023/01/15 03:40:37;;;;;;;9.10;8.70;;;;;;;;;;5111167;28;20020;-73
2023/01/15 03:45:51;;;;;;;9.43;9.00;;;;;;;;;;5092372;28;20047;-71
2023/01/15 03:48:26;;;;;;;9.00;8.60;;;;;;;;;;5096204;28;20020;-70
2023/01/15 03:50:54;;;;;;;9.00;8.60;;;;;;;;;;5100763;28;20053;-70
2023/01/15 03:53:22;;;;;;;8.90;8.50;;;;;;;;;;5100604;28;20023;-72
2023/01/15 03:55:47;;;;;;;9.23;8.73;;;;;;;;;;5100317;28;20060;-74
2023/01/15 03:58:22;;;;;;;9.35;8.95;;;;;;;;;;5073586;28;20428;-73
2023/01/15 04:00:51;;;;;;;8.80;8.40;;;;;;;;;;5098224;28;20062;-75
2023/01/15 04:03:17;;;;;;;8.90;8.50;;;;;;;;;;5089166;28;20023;-73
2023/01/15 04:05:43;;;;;;;9.90;9.40;;;;;;;;;;5101005;28;20024;-72
2023/01/15 04:08:09;;;;;;;9.00;8.60;;;;;;;;;;5098592;28;20100;-74
2023/01/15 04:10:34;;;;;;;9.02;8.63;;;;;;;;;;5079597;28;20024;-72
2023/01/15 04:12:59;;;;;;;8.73;8.32;;;;;;;;;;5105660;28;20024;-73
2023/01/15 04:15:25;;;;;;;9.10;8.70;;;;;;;;;;5082258;28;20032;-72
2023/01/15 04:17:50;;;;;;;9.38;8.88;;;;;;;;;;5098738;28;20076;-73
2023/01/15 04:20:17;;;;;;;8.90;8.50;;;;;;;;;;5077700;28;20563;-71
2023/01/15 04:22:42;;;;;;;9.40;8.90;;;;;;;;;;5100290;28;20394;-71
2023/01/15 04:25:07;;;;;;;9.25;8.82;;;;;;;;;;5078561;28;20024;-70
2023/01/15 04:27:33;;;;;;;8.85;8.45;;;;;;;;;;5102647;28;20020;-71
2023/01/15 04:29:58;;;;;;;9.30;8.82;;;;;;;;;;5095029;28;20028;-72
2023/01/15 04:32:23;;;;;;;9.02;8.60;;;;;;;;;;5096706;28;20020;-72
2023/01/15 04:34:49;;;;;;;9.60;9.10;;;;;;;;;;5090754;28;20434;-72
2023/01/15 04:37:15;;;;;;;8.82;8.43;;;;;;;;;;5098242;28;20016;-73
2023/01/15 04:39:40;;;;;;;8.88;8.48;;;;;;;;;;5097997;28;20102;-74
2023/01/15 04:44:54;;;;;;;9.50;9.00;;;;;;;;;;5099171;28;20498;-73
2023/01/15 04:47:19;;;;;;;9.00;8.60;;;;;;;;;;5105325;28;20091;-73
2023/01/15 04:49:45;;;;;;;9.00;8.60;;;;;;;;;;5092127;28;20019;-72
2023/01/15 04:52:10;;;;;;;9.07;8.68;;;;;;;;;;5095147;28;20016;-75
2023/01/15 04:54:35;;;;;;;8.77;8.38;;;;;;;;;;5095983;28;20036;-75
2023/01/15 04:57:00;;;;;;;9.65;9.15;;;;;;;;;;5102087;28;20033;-75
2023/01/15 04:59:26;;;;;;;9.10;8.70;;;;;;;;;;5075291;28;20376;-74
2023/01/15 05:01:52;;;;;;;9.63;9.13;;;;;;;;;;5092560;28;20020;-75
2023/01/15 05:04:17;;;;;;;9.00;8.60;;;;;;;;;;5094736;28;20039;-75
2023/01/15 05:06:43;;;;;;;8.90;8.50;;;;;;;;;;5084411;28;20019;-75
2023/01/15 05:09:08;;;;;;;9.70;9.20;;;;;;;;;;5092170;28;20017;-76
2023/01/15 05:11:34;;;;;;;9.48;8.98;;;;;;;;;;5098058;28;20035;-75
2023/01/15 05:14:00;;;;;;;9.05;8.65;;;;;;;;;;5102839;28;20020;-75
2023/01/15 05:16:26;;;;;;;8.90;8.50;;;;;;;;;;5095640;28;20073;-75
2023/01/15 05:18:52;;;;;;;9.18;8.77;;;;;;;;;;5098144;28;20066;-74
2023/01/15 05:21:19;;;;;;;9.18;8.75;;;;;;;;;;5081503;28;20020;-76
2023/01/15 05:23:45;;;;;;;10.10;9.57;;;;;;;;;;5099690;28;20392;-75
2023/01/15 05:26:10;;;;;;;9.30;8.80;;;;;;;;;;5091485;28;20023;-73
2023/01/15 05:28:36;;;;;;;8.80;8.40;;;;;;;;;;5101724;28;20059;-74
2023/01/15 05:31:05;;;;;;;8.93;8.52;;;;;;;;;;5100261;28;20035;-75
2023/01/15 05:33:31;;;;;;;8.88;8.48;;;;;;;;;;5082146;28;20429;-76
2023/01/15 05:36:00;;;;;;;9.30;8.90;;;;;;;;;;5104346;28;20137;-75
2023/01/15 05:38:25;;;;;;;9.20;8.80;;;;;;;;;;5081516;28;20028;-75
2023/01/15 05:40:50;;;;;;;9.35;8.90;;;;;;;;;;5083725;28;20039;-73
2023/01/15 05:43:16;;;;;;;10.18;9.65;;;;;;;;;;5096542;28;20023;-73
2023/01/15 05:45:41;;;;;;;9.20;8.77;;;;;;;;;;5096166;28;20032;-73
2023/01/15 05:48:07;;;;;;;9.60;9.10;;;;;;;;;;5095747;28;20028;-73
2023/01/15 05:50:32;;;;;;;8.65;8.25;;;;;;;;;;5095519;28;20033;-73
2023/01/15 05:52:57;;;;;;;9.60;9.10;;;;;;;;;;5099683;28;20020;-73
2023/01/15 05:55:23;;;;;;;9.80;9.30;;;;;;;;;;5098525;28;20122;-73
2023/01/15 05:57:48;;;;;;;9.82;9.32;;;;;;;;;;5089462;28;20057;-74
2023/01/15 06:00:14;;;;;;;9.75;9.25;;;;;;;;;;5097183;28;20269;-75
2023/01/15 06:02:39;;;;;;;9.80;9.30;;;;;;;;;;5079693;28;20536;-73
2023/01/15 06:05:04;;;;;;;9.45;8.95;;;;;;;;;;5096411;28;20015;-75
2023/01/15 06:07:30;;;;;;;9.82;9.32;;;;;;;;;;5094815;28;20076;-74
2023/01/15 06:09:55;;;;;;;9.75;9.25;;;;;;;;;;5096809;28;20039;-73
2023/01/15 06:12:20;;;;;;;9.63;9.13;;;;;;;;;;5096293;28;20024;-73
2023/01/15 06:14:46;;;;;;;9.20;8.80;;;;;;;;;;5099464;28;20039;-72
2023/01/15 06:17:11;;;;;;;9.73;9.23;;;;;;;;;;5096363;28;20032;-73
2023/01/15 06:19:36;;;;;;;9.60;9.10;;;;;;;;;;5094351;28;20024;-72
2023/01/15 06:22:02;;;;;;;10.60;10.00;;;;;;;;;;5091826;28;20387;-73
2023/01/15 06:24:28;;;;;;;9.25;8.85;;;;;;;;;;5099967;28;20023;-70
2023/01/15 06:26:53;;;;;;;9.93;9.43;;;;;;;;;;5095450;28;20559;-71
2023/01/15 06:29:19;;;;;;;9.20;8.80;;;;;;;;;;5098847;28;20113;-71
2023/01/15 06:31:45;;;;;;;9.27;8.88;;;;;;;;;;5099360;28;20031;-72
2023/01/15 06:34:10;;;;;;;9.05;8.65;;;;;;;;;;5074316;28;20019;-72
2023/01/15 06:36:35;;;;;;;8.73;8.32;;;;;;;;;;5096119;28;20032;-72
2023/01/15 06:39:01;;;;;;;9.25;8.82;;;;;;;;;;5094770;28;20020;-72
2023/01/15 06:49:39;;;;;;;9.48;8.98;;;;;;;;;;5094407;28;20136;-72
2023/01/15 06:52:05;;;;;;;10.02;9.52;;;;;;;;;;5090803;28;20028;-73
2023/01/15 06:54:30;;;;;;;9.57;9.07;;;;;;;;;;5094380;28;20495;-72
2023/01/15 06:56:55;;;;;;;9.70;9.20;;;;;;;;;;5091721;28;20487;-72
2023/01/15 06:59:21;;;;;;;9.00;8.60;;;;;;;;;;5098564;28;20023;-74
2023/01/15 07:01:47;;;;;;;9.70;9.20;;;;;;;;;;5092479;28;20030;-74
2023/01/15 07:04:12;;;;;;;10.50;9.90;;;;;;;;;;5097471;28;20020;-74
2023/01/15 07:06:38;;;;;;;9.70;9.20;;;;;;;;;;5092873;28;20024;-74
2023/01/15 07:09:03;;;;;;;9.25;8.85;;;;;;;;;;5098891;28;20039;-73
2023/01/15 07:11:28;;;;;;;9.32;8.93;;;;;;;;;;5073477;28;20475;-74
2023/01/15 07:14:15;;;;;;;10.70;10.10;;;;;;;;;;5097912;28;20023;-73
2023/01/15 07:16:39;;;;;;;9.10;8.70;;;;;;;;;;5091800;28;20081;-73
2023/01/15 07:19:04;;;;;;;9.15;8.75;;;;;;;;;;5095743;28;20020;-74
2023/01/15 07:21:30;;;;;;;9.13;8.73;;;;;;;;;;5091103;28;20459;-71
2023/01/15 07:23:58;;;;;;;9.45;8.95;;;;;;;;;;5095247;28;20066;-73
2023/01/15 07:26:23;;;;;;;9.02;8.63;;;;;;;;;;5092613;28;20073;-70
2023/01/15 07:28:49;;;;;;;9.25;8.85;;;;;;;;;;5078383;28;20024;-70
2023/01/15 07:31:14;;;;;;;9.10;8.70;;;;;;;;;;5095250;28;20039;-75
2023/01/15 07:33:39;;;;;;;9.00;8.60;;;;;;;;;;5096012;28;20031;-70
2023/01/15 07:36:05;;;;;;;10.35;9.75;;;;;;;;;;5075945;28;20016;-74
2023/01/15 07:38:30;;;;;;;9.15;8.75;;;;;;;;;;5075771;28;20486;-73
2023/01/15 07:51:53;;;;;;;9.80;9.30;;;;;;;;;;5096047;28;20476;-73
2023/01/15 07:54:18;;;;;;;9.98;9.48;;;;;;;;;;5068468;28;20083;-74
2023/01/15 07:56:44;;;;;;;10.05;9.55;;;;;;;;;;5080444;28;20024;-74
2023/01/15 07:59:09;;;;;;;9.85;9.35;;;;;;;;;;5076198;28;20016;-70
2023/01/15 08:01:34;;;;;;;9.13;8.73;;;;;;;;;;5100539;28;20148;-70
2023/01/15 08:03:59;;;;;;;9.35;8.88;;;;;;;;;;5081399;28;20020;-70
2023/01/15 08:06:25;;;;;;;9.65;9.15;;;;;;;;;;5095501;28;20012;-70
2023/01/15 08:08:50;;;;;;;9.88;9.38;;;;;;;;;;5092900;28;20055;-71
2023/01/15 08:16:43;;;;;;;9.13;8.68;;;;;;;;;;5103050;28;20042;-70
2023/01/15 08:19:09;;;;;;;9.00;8.60;;;;;;;;;;5103634;28;20015;-70
2023/01/15 08:21:34;;;;;;;9.30;8.88;;;;;;;;;;5102820;28;20016;-68
2023/01/15 08:23:59;;;;;;;9.38;8.98;;;;;;;;;;5096015;28;20020;-65
2023/01/15 08:26:25;;;;;;;9.05;8.65;;;;;;;;;;5103867;28;20433;-67
2023/01/15 08:28:50;;;;;;;9.13;8.73;;;;;;;;;;5106379;28;20114;-72
2023/01/15 08:31:15;;;;;;;9.70;9.20;;;;;;;;;;5083205;28;20024;-66
2023/01/15 08:33:42;;;;;;;10.38;9.77;;;;;;;;;;5087377;28;20083;-67
2023/01/15 08:36:07;;;;;;;10.00;9.50;;;;;;;;;;5085695;28;20023;-66
2023/01/15 08:38:33;;;;;;;9.85;9.35;;;;;;;;;;5082958;28;20024;-66
2023/01/15 08:40:58;;;;;;;9.40;8.90;;;;;;;;;;5094045;28;20360;-65
2023/01/15 08:43:24;;;;;;;9.73;9.23;;;;;;;;;;5094096;28;20028;-66
2023/01/15 08:45:49;;;;;;;8.65;8.25;;;;;;;;;;5086895;28;20475;-66
2023/01/15 08:48:14;;;;;;;9.27;8.85;;;;;;;;;;5090641;28;20020;-66
2023/01/15 08:50:40;;;;;;;10.50;9.90;;;;;;;;;;5089543;28;20027;-66
2023/01/15 08:53:05;;;;;;;9.98;9.48;;;;;;;;;;5096346;28;20023;-65
2023/01/15 08:55:31;;;;;;;10.68;10.07;;;;;;;;;;5085478;28;20049;-68
2023/01/15 08:57:57;;;;;;;9.65;9.15;;;;;;;;;;5072964;28;20034;-68
2023/01/15 09:00:23;;;;;;;10.93;10.32;;;;;;;;;;5090493;28;20028;-67
2023/01/15 09:02:48;;;;;;;11.00;10.40;;;;;;;;;;5088452;28;20019;-63
2023/01/15 09:05:14;;;;;;;10.93;10.32;;;;;;;;;;5103564;28;20023;-64
2023/01/15 09:07:39;;;;;;;9.95;9.45;;;;;;;;;;5099600;28;20024;-66
2023/01/15 09:10:05;;;;;;;10.50;9.90;;;;;;;;;;5088553;28;20038;-67
2023/01/15 09:12:30;;;;;;;11.57;10.88;;;;;;;;;;5085659;28;20025;-71
2023/01/15 09:14:55;;;;;;;10.15;9.57;;;;;;;;;;5068503;28;20028;-69
2023/01/15 09:17:21;;;;;;;10.90;10.30;;;;;;;;;;5087293;28;20391;-71
2023/01/15 09:19:46;;;;;;;10.68;10.07;;;;;;;;;;5073341;28;20029;-69
2023/01/15 09:22:11;;;;;;;10.90;10.30;;;;;;;;;;5058878;28;20581;-67
2023/01/15 09:24:36;;;;;;;10.90;10.30;;;;;;;;;;5072558;28;21791;-71
2023/01/15 09:27:02;;;;;;;11.40;10.70;;;;;;;;;;5075170;28;20098;-70
2023/01/15 09:29:27;;;;;;;9.90;9.40;;;;;;;;;;5098669;28;20011;-66
2023/01/15 09:31:53;;;;;;;11.18;10.48;;;;;;;;;;5101927;28;20031;-67
2023/01/15 09:34:18;;;;;;;10.77;10.18;;;;;;;;;;5095096;28;20023;-67
2023/01/15 09:36:45;;;;;;;10.07;9.57;;;;;;;;;;5097751;28;20360;-68
2023/01/15 09:39:10;;;;;;;10.05;9.55;;;;;;;;;;5099509;28;20016;-66
2023/01/15 09:44:38;;;;;;;9.60;9.10;;;;;;;;;;5098770;28;20035;-71
2023/01/15 09:47:26;;;;;;;10.23;9.70;;;;;;;;;;5094628;28;20019;-66
2023/01/15 09:50:10;;;;;;;11.52;10.82;;;;;;;;;;5089446;28;20023;-68
2023/01/15 09:52:35;;;;;;;9.50;9.00;;;;;;;;;;5088699;28;20092;-69
2023/01/15 09:55:08;;;;;;;10.60;10.00;;;;;;;;;;5089148;28;20085;-70
2023/01/15 09:57:34;;;;;;;9.73;9.23;;;;;;;;;;5072352;28;20019;-70
2023/01/15 10:00:02;;;;;;;10.13;9.60;;;;;;;;;;5092570;28;20379;-70
2023/01/15 10:02:54;;;;;;;10.68;10.07;;;;;;;;;;5100757;28;20042;-70
2023/01/15 10:05:38;;;;;;;9.98;9.48;;;;;;;;;;5093099;28;20032;-68
2023/01/15 10:08:09;;;;;;;9.85;9.35;;;;;;;;;;5093342;28;20552;-67
2023/01/15 10:10:46;;;;;;;9.95;9.45;;;;;;;;;;5087618;28;20036;-63
2023/01/15 10:13:17;;;;;;;10.48;9.88;;;;;;;;;;5088325;28;20538;-63
2023/01/15 10:15:46;;;;;;;10.75;10.15;;;;;;;;;;5079139;28;20063;-63
2023/01/15 10:18:20;;;;;;;10.30;9.75;;;;;;;;;;5094238;28;20020;-64
2023/01/15 10:20:53;;;;;;;10.02;9.52;;;;;;;;;;5091447;28;20095;-63
2023/01/15 10:23:43;;;;;;;11.32;10.63;;;;;;;;;;5090884;28;20051;-63
2023/01/15 10:26:21;;;;;;;10.60;10.00;;;;;;;;;;5088081;28;20039;-65
2023/01/15 10:28:46;;;;;;;9.63;9.13;;;;;;;;;;5084439;28;20089;-66
2023/01/15 10:31:17;;;;;;;10.02;9.52;;;;;;;;;;5102059;28;20020;-65
2023/01/15 10:33:43;;;;;;;10.25;9.68;;;;;;;;;;5098938;28;20023;-64
2023/01/15 10:36:19;;;;;;;10.43;9.82;;;;;;;;;;5099275;28;20016;-65
2023/01/15 10:39:11;;;;;;;10.63;10.02;;;;;;;;;;5095361;28;20425;-64
2023/01/15 10:41:36;;;;;;;10.63;10.02;;;;;;;;;;5089856;28;20023;-65
2023/01/15 10:44:10;;;;;;;10.45;9.85;;;;;;;;;;5097487;28;20106;-64
2023/01/15 10:46:37;;;;;;;9.60;9.10;;;;;;;;;;5101670;28;20024;-65
2023/01/15 10:49:12;;;;;;;10.63;10.02;;;;;;;;;;5098783;28;20032;-63
2023/01/15 10:51:45;;;;;;;10.23;9.65;;;;;;;;;;5098444;28;20024;-65
2023/01/15 10:54:17;;;;;;;10.05;9.55;;;;;;;;;;5090929;28;20079;-65
2023/01/15 10:56:45;;;;;;;10.50;9.90;;;;;;;;;;5098278;28;20086;-65
2023/01/15 10:59:29;;;;;;;9.43;8.93;;;;;;;;;;5101769;28;20020;-64
2023/01/15 11:01:57;;;;;;;10.02;9.52;;;;;;;;;;5099019;28;20107;-64
2023/01/15 11:04:24;;;;;;;9.50;9.00;;;;;;;;;;5081596;28;20026;-64
2023/01/15 11:06:49;;;;;;;10.35;9.85;;;;;;;;;;5095008;28;20024;-64
2023/01/15 11:09:23;;;;;;;10.10;9.60;;;;;;;;;;5094078;28;20081;-64
2023/01/15 11:20:21;;;;;;;9.30;8.80;;;;;;;;;;5101327;28;20513;-64
2023/01/15 11:22:46;;;;;;;10.15;9.65;;;;;;;;;;5099455;28;20055;-65
2023/01/15 11:25:12;;;;;;;9.75;9.25;;;;;;;;;;5098911;28;20126;-65
2023/01/15 11:27:38;;;;;;;9.77;9.27;;;;;;;;;;5096764;28;20020;-65
2023/01/15 11:30:05;;;;;;;10.05;9.55;;;;;;;;;;5103950;28;20031;-65
2023/01/15 11:32:34;;;;;;;9.90;9.40;;;;;;;;;;5099346;28;20012;-64
2023/01/15 11:35:20;;;;;;;9.80;9.30;;;;;;;;;;5099085;28;20107;-65
2023/01/15 11:37:45;;;;;;;9.50;9.00;;;;;;;;;;5095919;28;20031;-64
2023/01/15 11:40:16;;;;;;;9.25;8.85;;;;;;;;;;5091788;28;20111;-65
2023/01/15 11:51:06;;;;;;;9.85;9.35;;;;;;;;;;5101094;28;20030;-66
2023/01/15 11:53:33;;;;;;;9.60;9.10;;;;;;;;;;5102425;28;20027;-64
2023/01/15 11:55:59;;;;;;;9.30;8.90;;;;;;;;;;5104357;28;20020;-65
2023/01/15 11:58:31;;;;;;;9.50;9.02;;;;;;;;;;5097688;28;20475;-66
2023/01/15 12:00:57;;;;;;;9.55;9.05;;;;;;;;;;5105800;28;20027;-63
2023/01/15 12:03:25;;;;;;;9.68;9.18;;;;;;;;;;5103128;28;20012;-66
2023/01/15 12:06:05;;;;;;;9.95;9.45;;;;;;;;;;5097993;28;20028;-64
2023/01/15 12:08:43;;;;;;;11.73;11.02;;;;;;;;;;5093329;28;20415;-66
2023/01/15 12:11:15;;;;;;;9.88;9.38;;;;;;;;;;5099531;28;20026;-64
2023/01/15 12:13:43;;;;;;;10.02;9.52;;;;;;;;;;5096261;28;20031;-65
2023/01/15 12:16:09;;;;;;;9.80;9.30;;;;;;;;;;5096665;28;20395;-64
2023/01/15 12:18:34;;;;;;;9.80;9.30;;;;;;;;;;5102939;28;20028;-64
2023/01/15 12:21:04;;;;;;;9.50;9.00;;;;;;;;;;5103733;28;20027;-64
2023/01/15 12:23:29;;;;;;;9.23;8.82;;;;;;;;;;5103502;28;20110;-66
2023/01/15 12:25:57;;;;;;;9.63;9.13;;;;;;;;;;5102510;28;20027;-65
2023/01/15 12:28:35;;;;;;;9.05;8.65;;;;;;;;;;5104949;28;20035;-65
2023/01/15 12:31:11;;;;;;;10.30;9.73;;;;;;;;;;5098549;28;20031;-63
2023/01/15 12:33:38;;;;;;;9.68;9.18;;;;;;;;;;5083417;28;20492;-65
2023/01/15 12:36:23;;;;;;;10.70;10.10;;;;;;;;;;5101608;28;20055;-65
2023/01/15 12:39:12;;;;;;;9.75;9.25;;;;;;;;;;5066280;28;20036;-65
2023/01/15 12:47:15;;;;;;;9.60;9.10;;;;;;;;;;5101987;28;20078;-65
2023/01/15 12:49:47;;;;;;;10.20;9.65;;;;;;;;;;5101544;28;20020;-65
2023/01/15 12:52:19;;;;;;;9.43;8.93;;;;;;;;;;5100537;28;20028;-66
2023/01/15 12:54:50;;;;;;;9.68;9.18;;;;;;;;;;5104951;28;20088;-64
2023/01/15 12:57:18;;;;;;;9.95;9.45;;;;;;;;;;5102427;28;20103;-65
2023/01/15 12:59:47;;;;;;;9.82;9.32;;;;;;;;;;5098493;28;20012;-64
2023/01/15 13:02:19;;;;;;;9.68;9.18;;;;;;;;;;5105852;28;20502;-66
2023/01/15 13:04:50;;;;;;;11.77;11.05;;;;;;;;;;5085753;28;21652;-65
2023/01/15 13:07:16;;;;;;;9.80;9.30;;;;;;;;;;5094902;28;20047;-62
2023/01/15 13:09:59;;;;;;;10.95;10.35;;;;;;;;;;5069675;28;20055;-65
2023/01/15 13:12:25;;;;;;;9.50;9.00;;;;;;;;;;5079468;28;20028;-63
2023/01/15 13:14:50;;;;;;;11.05;10.43;;;;;;;;;;5087429;28;20031;-66
2023/01/15 13:17:29;;;;;;;9.93;9.43;;;;;;;;;;5101070;28;20488;-64
2023/01/15 13:19:54;;;;;;;9.13;8.73;;;;;;;;;;5097366;28;20027;-64
2023/01/15 13:22:24;;;;;;;9.48;9.00;;;;;;;;;;5096992;28;20012;-64
2023/01/15 13:25:08;;;;;;;9.93;9.43;;;;;;;;;;5102521;28;20028;-64
2023/01/15 13:27:41;;;;;;;9.95;9.45;;;;;;;;;;5089687;28;20020;-64
2023/01/15 13:30:13;;;;;;;9.82;9.32;;;;;;;;;;5095663;28;20016;-65
2023/01/15 13:32:41;;;;;;;10.20;9.70;;;;;;;;;;5088717;28;20046;-65
2023/01/15 13:35:10;;;;;;;10.15;9.65;;;;;;;;;;5093021;28;20071;-67
2023/01/15 13:37:39;;;;;;;10.00;9.50;;;;;;;;;;5090535;28;20007;-67
2023/01/15 13:40:16;;;;;;;9.88;9.38;;;;;;;;;;5091098;28;20077;-65
2023/01/15 13:42:44;;;;;;;9.63;9.13;;;;;;;;;;5092509;28;20012;-64
2023/01/15 13:45:27;;;;;;;9.27;8.88;;;;;;;;;;5087551;28;20020;-65
2023/01/15 13:47:54;;;;;;;11.65;10.95;;;;;;;;;;5094553;28;20028;-65
2023/01/15 13:50:27;;;;;;;10.00;9.50;;;;;;;;;;5097294;28;20502;-66
2023/01/15 13:53:05;;;;;;;10.30;9.80;;;;;;;;;;5097510;28;20047;-66
2023/01/15 13:55:36;;;;;;;10.20;9.68;;;;;;;;;;5093199;28;20062;-66
2023/01/15 13:58:01;;;;;;;11.75;11.05;;;;;;;;;;5080523;28;22717;-66
2023/01/15 14:00:28;;;;;;;12.25;11.48;;;;;;;;;;5080821;28;20016;-65
2023/01/15 14:02:55;;;;;;;11.27;10.57;;;;;;;;;;5076013;28;20030;-64
2023/01/15 14:05:26;;;;;;;10.07;9.57;;;;;;;;;;5079911;28;20032;-65
2023/01/15 14:07:52;;;;;;;10.57;9.98;;;;;;;;;;5057857;28;20031;-64
2023/01/15 14:10:17;;;;;;;11.07;10.43;;;;;;;;;;5076890;28;20089;-65
2023/01/15 14:12:45;;;;;;;9.27;8.88;;;;;;;;;;5086775;28;20049;-65
2023/01/15 14:15:13;;;;;;;9.20;8.80;;;;;;;;;;5099356;28;20020;-65
2023/01/15 14:17:44;;;;;;;9.60;9.10;;;;;;;;;;5097964;28;20016;-64
2023/01/15 14:20:10;;;;;;;9.38;8.93;;;;;;;;;;5095422;28;20091;-64
2023/01/15 14:22:53;;;;;;;9.43;8.93;;;;;;;;;;5092826;28;20551;-64
2023/01/15 14:25:37;;;;;;;9.25;8.85;;;;;;;;;;5094001;28;20746;-65
2023/01/15 14:28:22;;;;;;;10.35;9.75;;;;;;;;;;5080249;28;20127;-64
2023/01/15 14:30:55;;;;;;;11.63;10.93;;;;;;;;;;5084173;28;20720;-64
2023/01/15 14:33:20;;;;;;;10.30;9.75;;;;;;;;;;5078617;28;20062;-65
2023/01/15 14:35:46;;;;;;;9.20;8.77;;;;;;;;;;5087279;28;20055;-65
2023/01/15 14:38:14;;;;;;;9.15;8.75;;;;;;;;;;5092200;28;20015;-65
2023/01/15 14:40:48;;;;;;;9.23;8.82;;;;;;;;;;5084660;28;20471;-66
2023/01/15 14:43:17;;;;;;;9.90;9.40;;;;;;;;;;5079405;28;20375;-66
2023/01/15 14:45:45;;;;;;;9.93;9.43;;;;;;;;;;5092395;28;20475;-65
2023/01/15 14:48:18;;;;;;;9.30;8.88;;;;;;;;;;5086557;28;20107;-68
2023/01/15 14:50:44;;;;;;;10.43;9.82;;;;;;;;;;5089581;28;20085;-65
2023/01/15 14:53:12;;;;;;;10.20;9.70;;;;;;;;;;5080557;28;20601;-64
2023/01/15 14:55:58;;;;;;;9.75;9.25;;;;;;;;;;5080432;28;20055;-67
2023/01/15 14:58:26;;;;;;;10.75;10.15;;;;;;;;;;5075343;28;20111;-66
2023/01/15 15:00:52;;;;;;;9.88;9.38;;;;;;;;;;5088123;28;20016;-66
2023/01/15 15:03:24;;;;;;;9.07;8.68;;;;;;;;;;5093373;28;20024;-66
2023/01/15 15:05:50;;;;;;;10.35;9.75;;;;;;;;;;5085431;28;20035;-63
2023/01/15 15:08:17;;;;;;;9.18;8.77;;;;;;;;;;5087829;28;20024;-65
2023/01/15 15:10:45;;;;;;;9.75;9.25;;;;;;;;;;5090919;28;20035;-63
2023/01/15 15:13:18;;;;;;;8.95;8.55;;;;;;;;;;5099309;28;20486;-64
2023/01/15 15:15:43;;;;;;;9.07;8.68;;;;;;;;;;5093306;28;20059;-65
2023/01/15 15:18:11;;;;;;;8.98;8.57;;;;;;;;;;5097430;28;20425;-63
2023/01/15 15:20:36;;;;;;;9.32;8.90;;;;;;;;;;5102571;28;20017;-65
2023/01/15 15:23:14;;;;;;;9.25;8.85;;;;;;;;;;5101004;28;20486;-66
2023/01/15 15:25:40;;;;;;;11.77;11.07;;;;;;;;;;5082353;28;20551;-68
2023/01/15 15:28:08;;;;;;;9.60;9.10;;;;;;;;;;5089379;28;20063;-66
2023/01/15 15:30:34;;;;;;;9.10;8.70;;;;;;;;;;5085311;28;20020;-65
2023/01/15 15:33:02;;;;;;;9.50;9.02;;;;;;;;;;5084998;28;20036;-64
2023/01/15 15:35:29;;;;;;;10.32;9.75;;;;;;;;;;5090699;28;20031;-64
2023/01/15 15:37:56;;;;;;;9.38;8.90;;;;;;;;;;5102575;28;20073;-71
2023/01/15 15:40:24;;;;;;;9.68;9.18;;;;;;;;;;5096159;28;20036;-70
2023/01/15 15:48:41;;;;;;;9.02;8.63;;;;;;;;;;5084239;28;20070;-63
2023/01/15 15:51:06;;;;;;;;;;;;;;;;;;5090984;28;20084;-64